createdAt,value
2022-12-20T00:00:52.121Z,24.20
2022-12-20T00:03:20.540Z,21.67
2022-12-20T00:05:47.502Z,20.52
2022-12-20T00:08:13.919Z,21.73
2022-12-20T00:10:42.672Z,22.10
2022-12-20T00:13:10.691Z,22.00
2022-12-20T00:15:37.205Z,22.02
2022-12-20T00:18:04.663Z,21.70
2022-12-20T00:20:31.282Z,22.55
2022-12-20T00:22:57.700Z,20.98
2022-12-20T00:25:24.304Z,21.70
2022-12-20T00:27:51.141Z,21.60
2022-12-20T00:30:18.650Z,21.52
2022-12-20T00:32:45.917Z,20.98
2022-12-20T00:35:12.856Z,21.15
2022-12-20T00:37:39.380Z,22.85
2022-12-20T00:40:06.674Z,20.23
2022-12-20T00:42:33.342Z,21.05
2022-12-20T00:44:59.976Z,20.45
2022-12-20T00:47:26.454Z,21.73
2022-12-20T00:49:52.876Z,21.85
2022-12-20T00:52:19.479Z,20.63
2022-12-20T00:54:45.919Z,20.05
2022-12-20T00:57:12.301Z,19.95
2022-12-20T00:59:38.776Z,20.55
2022-12-20T01:02:05.687Z,20.20
2022-12-20T01:04:32.179Z,20.77
2022-12-20T01:06:58.537Z,20.70
2022-12-20T01:09:24.911Z,20.05
2022-12-20T01:11:51.314Z,20.33
2022-12-20T01:14:18.187Z,20.73
2022-12-20T01:16:46.710Z,20.65
2022-12-20T01:19:16.037Z,20.55
2022-12-20T01:21:45.865Z,20.90
2022-12-20T01:24:14.491Z,21.27
2022-12-20T01:26:41.005Z,20.45
2022-12-20T01:29:07.572Z,21.90
2022-12-20T01:31:34.632Z,21.40
2022-12-20T01:34:01.454Z,20.35
2022-12-20T01:36:32.043Z,20.02
2022-12-20T01:39:08.420Z,21.70
2022-12-20T01:41:37.066Z,20.58
2022-12-20T01:44:27.614Z,19.15
2022-12-20T01:46:55.048Z,21.65
2022-12-20T01:49:26.473Z,19.52
2022-12-20T01:52:24.662Z,20.80
2022-12-20T01:55:02.425Z,20.33
2022-12-20T01:57:39.702Z,18.92
2022-12-20T02:00:08.541Z,19.73
2022-12-20T02:02:36.031Z,20.00
2022-12-20T02:05:03.102Z,18.73
2022-12-20T02:07:32.117Z,19.67
2022-12-20T02:10:00.854Z,19.83
2022-12-20T02:12:36.900Z,19.65
2022-12-20T02:15:24.568Z,19.67
2022-12-20T02:18:22.223Z,18.92
2022-12-20T02:21:12.650Z,18.88
2022-12-20T02:23:57.146Z,19.50
2022-12-20T02:26:42.401Z,19.55
2022-12-20T02:29:33.822Z,18.77
2022-12-20T02:32:19.487Z,20.25
2022-12-20T02:34:46.818Z,19.55
2022-12-20T02:37:13.253Z,19.05
2022-12-20T02:39:40.841Z,18.23
2022-12-20T02:42:10.376Z,19.05
2022-12-20T02:45:00.326Z,18.70
2022-12-20T02:47:32.413Z,18.38
2022-12-20T02:49:59.913Z,18.52
2022-12-20T02:52:30.897Z,19.90
2022-12-20T02:54:58.755Z,17.90
2022-12-20T02:57:36.433Z,17.98
2022-12-20T03:00:09.848Z,19.33
2022-12-20T03:03:00.695Z,18.95
2022-12-20T03:05:27.973Z,17.73
2022-12-20T03:07:54.595Z,18.98
2022-12-20T03:10:22.476Z,17.67
2022-12-20T03:12:48.902Z,18.95
2022-12-20T03:15:15.442Z,18.27
2022-12-20T03:17:41.905Z,17.33
2022-12-20T03:20:11.103Z,18.17
2022-12-20T03:22:38.566Z,18.00
2022-12-20T03:25:05.705Z,18.38
2022-12-20T03:27:32.122Z,17.05
2022-12-20T03:29:58.531Z,17.52
2022-12-20T03:32:24.906Z,17.25
2022-12-20T03:34:51.383Z,18.38
2022-12-20T03:37:18.140Z,17.85
2022-12-20T03:39:44.602Z,17.00
2022-12-20T03:42:11.015Z,17.88
2022-12-20T03:44:37.460Z,17.98
2022-12-20T03:47:04.113Z,17.15
2022-12-20T03:49:30.655Z,16.95
2022-12-20T03:51:57.051Z,17.15
2022-12-20T03:54:23.433Z,16.50
2022-12-20T03:56:49.818Z,16.30
2022-12-20T03:59:16.516Z,17.48
2022-12-20T04:01:42.988Z,17.35
2022-12-20T04:04:12.659Z,17.13
2022-12-20T04:06:39.104Z,17.92
2022-12-20T04:09:05.867Z,17.45
2022-12-20T04:11:32.287Z,16.95
2022-12-20T04:13:58.713Z,16.85
2022-12-20T04:16:29.052Z,15.90
2022-12-20T04:18:55.690Z,17.35
2022-12-20T04:21:24.729Z,17.02
2022-12-20T04:23:51.152Z,17.83
2022-12-20T04:26:18.116Z,16.08
2022-12-20T04:28:44.567Z,17.85
2022-12-20T04:31:11.375Z,16.15
2022-12-20T04:33:38.562Z,17.42
2022-12-20T04:36:05.390Z,16.55
2022-12-20T04:38:32.088Z,17.73
2022-12-20T04:40:58.523Z,17.35
2022-12-20T04:43:25.291Z,16.45
2022-12-20T04:45:53.621Z,16.95
2022-12-20T04:48:55.035Z,17.08
2022-12-20T04:51:06.686Z,16.48
2022-12-20T04:53:48.502Z,18.52
2022-12-20T04:56:28.218Z,19.00
2022-12-20T04:58:56.971Z,19.23
2022-12-20T05:01:23.777Z,21.13
2022-12-20T05:03:50.683Z,21.25
2022-12-20T05:06:17.552Z,22.10
2022-12-20T05:08:44.159Z,23.05
2022-12-20T05:11:11.032Z,24.38
2022-12-20T05:13:37.499Z,24.08
2022-12-20T05:16:04.525Z,24.23
2022-12-20T05:18:31.039Z,24.75
2022-12-20T05:21:18.054Z,25.05
2022-12-20T05:24:03.273Z,24.85
2022-12-20T05:26:33.057Z,25.90
2022-12-20T05:28:59.509Z,25.15
2022-12-20T05:31:26.116Z,25.98
2022-12-20T05:33:52.691Z,24.88
2022-12-20T05:36:19.188Z,25.10
2022-12-20T05:38:45.875Z,25.95
2022-12-20T05:41:12.302Z,25.13
2022-12-20T05:43:38.732Z,27.10
2022-12-20T05:46:05.465Z,27.88
2022-12-20T05:48:31.973Z,27.15
2022-12-20T05:50:58.991Z,26.75
2022-12-20T05:53:26.582Z,27.85
2022-12-20T05:55:54.068Z,27.10
2022-12-20T05:58:21.139Z,27.90
2022-12-20T06:00:47.970Z,26.88
2022-12-20T06:03:17.699Z,27.98
2022-12-20T06:05:45.376Z,27.40
2022-12-20T06:08:12.742Z,28.52
2022-12-20T06:10:41.507Z,27.83
2022-12-20T06:13:09.376Z,28.23
2022-12-20T06:15:36.271Z,27.92
2022-12-20T06:18:02.904Z,26.67
2022-12-20T06:20:29.340Z,26.70
2022-12-20T06:22:55.746Z,25.98
2022-12-20T06:25:22.915Z,27.83
2022-12-20T06:27:49.399Z,26.65
2022-12-20T06:30:16.970Z,27.40
2022-12-20T06:32:43.353Z,27.73
2022-12-20T06:35:10.001Z,26.70
2022-12-20T06:37:36.517Z,27.58
2022-12-20T06:40:06.070Z,26.10
2022-12-20T06:42:32.541Z,27.20
2022-12-20T06:44:58.916Z,26.48
2022-12-20T06:47:25.354Z,25.30
2022-12-20T06:49:51.811Z,25.77
2022-12-20T06:52:18.287Z,24.80
2022-12-20T06:54:44.692Z,21.70
2022-12-20T06:57:11.119Z,23.02
2022-12-20T06:59:37.504Z,23.38
2022-12-20T07:02:04.424Z,22.40
2022-12-20T07:04:32.065Z,21.23
2022-12-20T07:06:58.459Z,21.83
2022-12-20T07:09:24.867Z,22.10
2022-12-20T07:11:52.045Z,22.70
2022-12-20T07:14:18.452Z,22.08
2022-12-20T07:16:45.003Z,22.50
2022-12-20T07:19:12.885Z,22.35
2022-12-20T07:21:39.413Z,22.33
2022-12-20T07:24:06.372Z,21.77
2022-12-20T07:26:33.281Z,22.58
2022-12-20T07:28:59.708Z,22.42
2022-12-20T07:31:26.322Z,22.25
2022-12-20T07:33:52.842Z,21.60
2022-12-20T07:36:19.486Z,22.27
2022-12-20T07:38:46.092Z,20.55
2022-12-20T07:41:15.764Z,22.80
2022-12-20T07:43:43.512Z,21.88
2022-12-20T07:46:12.864Z,21.70
2022-12-20T07:48:39.369Z,21.52
2022-12-20T07:51:13.699Z,21.38
2022-12-20T07:53:46.163Z,22.17
2022-12-20T07:56:15.052Z,21.45
2022-12-20T07:58:42.630Z,21.17
2022-12-20T08:01:10.275Z,21.45
2022-12-20T08:03:48.083Z,21.10
2022-12-20T08:06:16.249Z,19.95
2022-12-20T08:08:47.996Z,21.15
2022-12-20T08:11:15.331Z,19.20
2022-12-20T08:13:46.194Z,20.40
2022-12-20T08:16:13.823Z,20.98
2022-12-20T08:18:40.427Z,20.38
2022-12-20T08:21:06.819Z,19.55
2022-12-20T08:23:33.398Z,19.00
2022-12-20T08:26:01.639Z,19.65
2022-12-20T08:28:29.380Z,19.92
2022-12-20T08:31:03.613Z,18.05
2022-12-20T08:33:30.214Z,18.85
2022-12-20T08:35:58.388Z,19.48
2022-12-20T08:38:26.976Z,18.35
2022-12-20T08:40:53.362Z,18.00
2022-12-20T08:43:19.747Z,18.13
2022-12-20T08:45:52.386Z,18.92
2022-12-20T08:48:18.814Z,17.40
2022-12-20T08:50:45.426Z,18.30
2022-12-20T08:53:11.877Z,18.30
2022-12-20T08:55:38.284Z,17.52
2022-12-20T08:58:04.838Z,17.42
2022-12-20T09:00:31.212Z,17.77
2022-12-20T09:02:57.875Z,17.60
2022-12-20T09:05:24.396Z,18.08
2022-12-20T09:07:50.828Z,17.65
2022-12-20T09:10:17.224Z,16.80
2022-12-20T09:12:43.584Z,16.98
2022-12-20T09:15:10.616Z,18.48
2022-12-20T09:17:37.469Z,18.27
2022-12-20T09:20:05.177Z,18.13
2022-12-20T09:22:31.673Z,17.98
2022-12-20T09:24:58.467Z,17.15
2022-12-20T09:27:24.840Z,17.60
2022-12-20T09:29:51.242Z,17.10
2022-12-20T09:32:17.632Z,16.90
2022-12-20T09:34:44.064Z,17.05
2022-12-20T09:37:10.860Z,17.27
2022-12-20T09:39:37.574Z,17.27
2022-12-20T09:42:07.845Z,17.58
2022-12-20T09:47:18.300Z,17.60
2022-12-20T09:49:48.601Z,18.15
2022-12-20T09:54:56.585Z,18.90
2022-12-20T09:57:42.013Z,19.08
2022-12-20T10:00:15.023Z,19.17
2022-12-20T10:03:00.102Z,20.40
2022-12-20T10:05:41.114Z,21.27
2022-12-20T10:10:52.634Z,23.17
2022-12-20T10:13:46.672Z,23.00
2022-12-20T10:16:24.616Z,23.05
2022-12-20T10:19:02.393Z,23.60
2022-12-20T10:21:44.524Z,23.17
2022-12-20T10:24:27.524Z,22.40
2022-12-20T10:26:54.334Z,21.33
2022-12-20T10:29:21.554Z,21.63
2022-12-20T10:32:00.372Z,19.50
2022-12-20T10:34:31.601Z,19.88
2022-12-20T10:37:15.880Z,20.65
2022-12-20T10:39:44.604Z,19.73
2022-12-20T10:42:36.328Z,19.52
2022-12-20T10:45:03.681Z,18.95
2022-12-20T10:47:38.633Z,19.15
2022-12-20T10:50:22.692Z,18.42
2022-12-20T10:53:07.995Z,17.70
2022-12-20T10:55:37.775Z,17.77
2022-12-20T10:58:12.902Z,17.00
2022-12-20T11:00:39.869Z,16.42
2022-12-20T11:03:21.102Z,16.20
2022-12-20T11:06:04.361Z,17.00
2022-12-20T11:08:40.911Z,17.48
2022-12-20T11:11:13.570Z,18.42
2022-12-20T11:13:41.360Z,16.92
2022-12-20T11:16:40.023Z,18.48
2022-12-20T11:19:24.952Z,16.85
2022-12-20T11:22:18.025Z,17.02
2022-12-20T11:24:59.806Z,16.13
2022-12-20T11:27:29.280Z,16.25
2022-12-20T11:30:04.417Z,15.70
2022-12-20T11:32:36.945Z,16.13
2022-12-20T11:35:09.905Z,16.77
2022-12-20T11:37:56.090Z,16.40
2022-12-20T11:40:28.452Z,15.77
2022-12-20T11:43:14.118Z,16.02
2022-12-20T11:45:58.817Z,17.27
2022-12-20T11:48:28.072Z,15.82
2022-12-20T11:51:16.761Z,17.00
2022-12-20T11:53:57.414Z,15.82
2022-12-20T11:56:26.739Z,16.02
2022-12-20T11:59:03.602Z,16.30
2022-12-20T12:01:44.236Z,17.50
2022-12-20T12:04:22.714Z,16.25
2022-12-20T12:07:04.378Z,17.20
2022-12-20T12:09:40.162Z,18.40
2022-12-20T12:12:19.333Z,19.40
2022-12-20T12:15:16.576Z,17.50
2022-12-20T12:17:46.622Z,17.85
2022-12-20T12:20:25.662Z,21.70
2022-12-20T12:22:57.813Z,18.85
2022-12-20T12:25:24.426Z,20.95
2022-12-20T12:27:50.855Z,19.95
2022-12-20T12:30:18.167Z,21.30
2022-12-20T12:32:55.710Z,21.77
2022-12-20T12:35:50.654Z,22.27
2022-12-20T12:38:23.163Z,25.13
2022-12-20T12:40:53.171Z,24.80
2022-12-20T12:43:44.289Z,24.70
2022-12-20T12:46:18.474Z,25.35
2022-12-20T12:49:06.068Z,30.45
2022-12-20T12:51:41.233Z,30.35
2022-12-20T12:54:30.040Z,30.42
2022-12-20T12:57:17.276Z,29.33
2022-12-20T12:59:49.610Z,29.70
2022-12-20T13:02:16.578Z,29.40
2022-12-20T13:05:10.995Z,29.10
2022-12-20T13:07:37.516Z,30.05
2022-12-20T13:10:10.050Z,29.55
2022-12-20T13:12:36.519Z,29.67
2022-12-20T13:15:21.413Z,29.63
2022-12-20T13:18:02.130Z,28.30
2022-12-20T13:20:30.845Z,28.85
2022-12-20T13:23:09.034Z,29.83
2022-12-20T13:25:41.670Z,27.65
2022-12-20T13:28:23.314Z,28.50
2022-12-20T13:31:02.232Z,28.40
2022-12-20T13:33:42.045Z,28.85
2022-12-20T13:36:11.648Z,28.55
2022-12-20T13:38:52.604Z,29.88
2022-12-20T13:41:51.235Z,28.60
2022-12-20T13:44:18.058Z,29.30
2022-12-20T13:46:52.417Z,29.40
2022-12-20T13:49:23.703Z,29.70
2022-12-20T13:52:12.924Z,29.30
2022-12-20T13:54:45.643Z,30.20
2022-12-20T13:57:17.218Z,28.88
2022-12-20T13:59:48.550Z,28.65
2022-12-20T14:02:24.932Z,28.45
2022-12-20T14:05:02.194Z,29.35
2022-12-20T14:07:32.089Z,29.35
2022-12-20T14:10:01.510Z,29.52
2022-12-20T14:12:36.428Z,29.73
2022-12-20T14:15:20.805Z,28.27
2022-12-20T14:17:47.215Z,30.08
2022-12-20T14:20:16.563Z,29.02
2022-12-20T14:22:51.302Z,28.43
2022-12-20T14:25:27.996Z,28.63
2022-12-20T14:27:55.745Z,28.67
2022-12-20T14:30:32.196Z,29.30
2022-12-20T14:32:58.790Z,29.42
2022-12-20T14:35:25.757Z,28.02
2022-12-20T14:38:00.236Z,28.73
2022-12-20T14:40:27.632Z,29.02
2022-12-20T14:42:54.526Z,29.48
2022-12-20T14:45:26.862Z,29.98
2022-12-20T14:48:03.373Z,29.13
2022-12-20T14:50:42.752Z,29.50
2022-12-20T14:53:22.582Z,28.37
2022-12-20T14:55:49.763Z,29.08
2022-12-20T14:58:28.896Z,29.33
2022-12-20T15:00:58.211Z,30.27
2022-12-20T15:03:25.790Z,28.97
2022-12-20T15:05:57.661Z,29.25
2022-12-20T15:08:34.348Z,30.67
2022-12-20T15:11:03.482Z,30.50
2022-12-20T15:13:35.336Z,29.63
2022-12-20T15:16:13.754Z,30.33
2022-12-20T15:18:40.283Z,29.23
2022-12-20T15:21:19.804Z,30.23
2022-12-20T15:23:49.425Z,30.05
2022-12-20T15:26:17.653Z,30.70
2022-12-20T15:28:44.077Z,31.00
2022-12-20T15:31:15.200Z,33.33
2022-12-20T15:33:42.900Z,39.10
2022-12-20T15:36:17.285Z,51.95
2022-12-20T15:41:33.839Z,39.88
2022-12-20T15:44:05.111Z,93.38
2022-12-20T15:46:32.260Z,101.18
2022-12-20T15:48:59.303Z,43.08
2022-12-20T15:51:30.861Z,39.03
2022-12-20T15:53:57.705Z,35.65
2022-12-20T15:56:25.224Z,31.30
2022-12-20T15:58:52.807Z,31.38
2022-12-20T16:01:32.109Z,30.05
2022-12-20T16:04:02.996Z,30.95
2022-12-20T16:06:29.460Z,29.65
2022-12-20T16:08:55.846Z,29.67
2022-12-20T16:11:30.474Z,30.15
2022-12-20T16:13:58.937Z,31.70
2022-12-20T16:16:35.485Z,29.30
2022-12-20T16:19:03.961Z,29.70
2022-12-20T16:21:36.060Z,28.83
2022-12-20T16:24:03.147Z,27.73
2022-12-20T16:26:29.775Z,27.85
2022-12-20T16:28:56.542Z,29.15
2022-12-20T16:31:32.183Z,27.35
2022-12-20T16:34:00.596Z,26.25
2022-12-20T16:36:27.259Z,27.30
2022-12-20T16:38:56.642Z,26.17
2022-12-20T16:41:28.127Z,25.23
2022-12-20T16:43:56.536Z,26.35
2022-12-20T16:46:27.138Z,25.27
2022-12-20T16:48:58.026Z,27.45
2022-12-20T16:51:38.439Z,38.30
2022-12-20T16:54:20.066Z,79.18
2022-12-20T16:56:48.392Z,99.55
2022-12-20T16:59:23.242Z,52.17
2022-12-20T17:01:52.684Z,33.67
2022-12-20T17:04:20.497Z,32.70
2022-12-20T17:06:47.460Z,27.17
2022-12-20T17:09:16.159Z,29.52
2022-12-20T17:11:43.165Z,26.63
2022-12-20T17:14:13.046Z,33.15
2022-12-20T17:16:40.618Z,25.58
2022-12-20T17:19:07.327Z,27.63
2022-12-20T17:24:22.048Z,26.38
2022-12-20T17:26:49.167Z,24.50
2022-12-20T17:29:16.748Z,24.88
2022-12-20T17:31:45.315Z,23.48
2022-12-20T17:34:26.707Z,25.75
2022-12-20T17:36:55.160Z,26.67
2022-12-20T17:39:22.950Z,26.77
2022-12-20T17:41:49.587Z,23.63
2022-12-20T17:44:18.841Z,24.13
2022-12-20T17:46:45.725Z,26.27
2022-12-20T17:49:12.601Z,24.83
2022-12-20T17:51:38.997Z,24.58
2022-12-20T17:54:05.796Z,23.77
2022-12-20T17:56:35.832Z,24.90
2022-12-20T17:59:04.515Z,24.60
2022-12-20T18:01:34.107Z,25.65
2022-12-20T18:04:05.691Z,24.33
2022-12-20T18:06:34.855Z,23.08
2022-12-20T18:09:01.248Z,23.48
2022-12-20T18:11:29.030Z,22.50
2022-12-20T18:13:57.870Z,23.38
2022-12-20T18:16:27.029Z,23.50
2022-12-20T18:18:54.137Z,23.45
2022-12-20T18:21:22.096Z,22.42
2022-12-20T18:23:48.913Z,22.65
2022-12-20T18:26:17.149Z,23.15
2022-12-20T18:28:46.092Z,29.45
2022-12-20T18:31:21.236Z,23.77
2022-12-20T18:33:53.907Z,24.35
2022-12-20T18:36:35.156Z,23.98
2022-12-20T18:39:04.285Z,24.95
2022-12-20T18:41:31.700Z,25.42
2022-12-20T18:44:02.189Z,24.85
2022-12-20T18:46:29.906Z,25.88
2022-12-20T18:48:58.071Z,25.05
2022-12-20T18:51:27.419Z,26.65
2022-12-20T18:53:56.258Z,26.83
2022-12-20T18:56:34.778Z,26.13
2022-12-20T18:59:10.447Z,25.95
2022-12-20T19:01:38.543Z,26.80
2022-12-20T19:04:07.158Z,26.15
2022-12-20T19:06:34.061Z,24.67
2022-12-20T19:09:01.480Z,24.60
2022-12-20T19:11:29.019Z,26.52
2022-12-20T19:13:55.704Z,26.35
2022-12-20T19:16:32.558Z,27.63
2022-12-20T19:19:03.784Z,24.90
2022-12-20T19:21:32.711Z,25.98
2022-12-20T19:24:01.521Z,26.95
2022-12-20T19:26:28.507Z,26.70
2022-12-20T19:28:55.249Z,29.08
2022-12-20T19:31:27.598Z,27.23
2022-12-20T19:34:15.395Z,29.10
2022-12-20T19:36:46.379Z,28.60
2022-12-20T19:39:20.068Z,30.33
2022-12-20T19:42:07.502Z,28.88
2022-12-20T19:44:33.562Z,30.33
2022-12-20T19:47:06.347Z,31.10
2022-12-20T19:49:33.274Z,29.30
2022-12-20T19:51:59.724Z,29.73
2022-12-20T19:54:26.213Z,32.97
2022-12-20T19:56:52.649Z,31.85
2022-12-20T19:59:19.237Z,32.75
2022-12-20T20:01:45.893Z,34.40
2022-12-20T20:04:12.371Z,33.05
2022-12-20T20:06:38.793Z,33.83
2022-12-20T20:09:05.341Z,36.58
2022-12-20T20:11:31.751Z,38.58
2022-12-20T20:14:00.366Z,37.92
2022-12-20T20:16:26.953Z,39.20
2022-12-20T20:18:53.597Z,40.13
2022-12-20T20:21:22.674Z,39.25
2022-12-20T20:23:51.098Z,42.30
2022-12-20T20:26:21.312Z,41.25
2022-12-20T20:31:16.847Z,40.85
2022-12-20T20:33:44.588Z,44.20
2022-12-20T20:36:16.141Z,46.40
2022-12-20T20:38:42.905Z,44.47
2022-12-20T20:41:10.547Z,45.42
2022-12-20T20:43:38.019Z,46.38
2022-12-20T20:46:06.588Z,48.20
2022-12-20T20:48:33.353Z,45.30
2022-12-20T20:51:00.066Z,48.83
2022-12-20T20:53:33.118Z,47.50
2022-12-20T20:56:00.721Z,50.33
2022-12-20T20:58:27.277Z,50.03
2022-12-20T21:00:58.968Z,49.22
2022-12-20T21:03:27.194Z,52.78
2022-12-20T21:06:32.922Z,46.42
2022-12-20T21:08:40.412Z,48.10
2022-12-20T21:11:08.421Z,48.72
2022-12-20T21:13:35.065Z,48.30
2022-12-20T21:16:09.029Z,55.50
2022-12-20T21:18:35.666Z,54.40
2022-12-20T21:21:07.038Z,49.33
2022-12-20T21:23:33.481Z,51.17
2022-12-20T21:26:00.348Z,51.33
2022-12-20T21:28:27.650Z,52.95
2022-12-20T21:30:59.304Z,50.78
2022-12-20T21:33:25.804Z,50.33
2022-12-20T21:36:03.375Z,54.30
2022-12-20T21:38:30.147Z,50.33
2022-12-20T21:41:07.900Z,49.63
2022-12-20T21:43:34.935Z,48.83
2022-12-20T21:46:01.909Z,49.67
2022-12-20T21:48:29.679Z,48.20
2022-12-20T21:51:03.959Z,46.13
2022-12-20T21:53:31.727Z,45.45
2022-12-20T21:55:59.810Z,46.67
2022-12-20T21:58:28.328Z,46.08
2022-12-20T22:00:55.958Z,45.95
2022-12-20T22:03:23.897Z,47.05
2022-12-20T22:05:53.550Z,46.55
2022-12-20T22:08:20.380Z,45.67
2022-12-20T22:10:47.105Z,44.83
2022-12-20T22:13:13.749Z,48.00
2022-12-20T22:15:40.810Z,45.47
2022-12-20T22:18:08.073Z,48.25
2022-12-20T22:20:35.468Z,44.40
2022-12-20T22:23:02.423Z,46.42
2022-12-20T22:25:28.913Z,46.75
2022-12-20T22:27:55.428Z,47.03
2022-12-20T22:30:21.871Z,46.58
2022-12-20T22:32:48.324Z,50.60
2022-12-20T22:35:22.235Z,53.75
2022-12-20T22:37:49.230Z,52.03
2022-12-20T22:40:15.766Z,54.97
2022-12-20T22:42:42.165Z,50.70
2022-12-20T22:45:09.487Z,53.83
2022-12-20T22:47:40.817Z,53.05
2022-12-20T22:50:08.216Z,50.28
2022-12-20T22:52:35.008Z,51.78
2022-12-20T22:55:01.540Z,51.75
2022-12-20T22:57:27.924Z,54.35
2022-12-20T22:59:58.607Z,48.65
2022-12-20T23:02:26.020Z,52.35
2022-12-20T23:04:52.893Z,50.22
2022-12-20T23:07:20.468Z,46.83
2022-12-20T23:09:47.158Z,45.53
2022-12-20T23:12:31.880Z,48.60
2022-12-20T23:15:16.669Z,48.08
2022-12-20T23:17:43.149Z,48.22
2022-12-20T23:20:28.522Z,45.60
2022-12-20T23:22:55.997Z,48.35
2022-12-20T23:25:22.452Z,46.05
2022-12-20T23:27:50.130Z,45.05
2022-12-20T23:30:19.448Z,44.55
2022-12-20T23:32:46.016Z,44.03
2022-12-20T23:35:15.347Z,43.50
2022-12-20T23:37:42.073Z,44.40
2022-12-20T23:40:09.877Z,46.55
2022-12-20T23:42:36.308Z,46.40
2022-12-20T23:45:02.888Z,47.35
2022-12-20T23:47:30.562Z,47.80
2022-12-20T23:49:57.001Z,47.60
2022-12-20T23:52:23.419Z,46.47
2022-12-20T23:54:49.998Z,45.25
2022-12-20T23:57:16.453Z,44.97
2022-12-20T23:59:42.872Z,45.88
